Oliver Schäfer

Olheiro-Chefe - Bayer Leverkusen
23 Out 2027
Sábado
Processo

Personalidade

Adaptabilidade (12) Ambição (16) Controvérsia (12) Lealdade (3) Pressão (5) Profissionalismo (14) Espírito Esportivo (11) Temperamento (16)

Perfil

Estilo de Treinamento Democrático
Licença Continental Pro
Determinação 10
Gestão de Pessoas 14
Motivação 8
Disciplina 11
Satisfação no Trabalho
73%
Fadiga
0%
Função Olheiro-Chefe
Salário 50.3K p/s
Contrato 14.03.2030

Desempenho

Comportamento Bom
Eficácia do Treinamento
48%
Desenvolvimento do Jogador
80%
Prevenção de Lesões
40%
Implementação Tática
80%

Eventos Recentes

Participou de uma reunião de recrutamento agora
Participou de uma reunião de recrutamento agora
Recomendou um alvo de transferência agora
Recomendou um alvo de transferência agora
Recomendou um alvo de transferência agora
Avaliou um jogador 7d atrás
Avaliou um jogador 7d atrás
Avaliou um jogador 7d atrás

Monitorando agora

200
Jogador Clube Status Habilidade Confiança Observado Última observação Último voto
Leny Yoro Monaco Ativo 145 / 156 40% 13 20.10.2027 -
Kenan Busuladžić Malmo FF Ativo 118 / 122 40% 4 20.10.2027 -
Nathan De Cat VfL Wolfsburg Ativo 137 / 139 40% 2 20.10.2027 -
Jorrel Hato Chelsea Ativo 152 / 156 40% 8 17.10.2027 -
Biel La Equidad Ativo 123 / 126 40% 4 17.10.2027 -
Josh Acheampong Oxford United Ativo 145 / 146 40% 2 17.10.2027 -
Finn Jeltsch VfB Stuttgart Ativo 135 / 150 40% 5 16.10.2027 -
Fodé Sylla Sion Ativo 120 / 127 40% 7 16.10.2027 -
Marc Bernal Valladolid Ativo 148 / 153 40% 3 16.10.2027 -
Lewis Miley Birmingham Ativo 145 / 153 40% 2 15.10.2027 -
Ayden Heaven Sheffield Wednesday Ativo 149 / 150 40% 3 14.10.2027 -
Matteo Palma Udinese Ativo 127 / 132 40% 4 13.10.2027 -
Kjell Wätjen Brondby Ativo 120 / 125 40% 3 13.10.2027 -
Karim Coulibaly RC Strasbourg Ativo 131 / 131 40% 5 10.10.2027 -
Halam Loboa Independiente Medellin Ativo 121 / 128 40% 9 10.10.2027 -
Héctor Fort Real Sociedad Ativo 143 / 144 40% 12 09.10.2027 -
Jaydee Canvot Liverpool Ativo 139 / 145 40% 4 08.10.2027 -
Bruno Ogbus Borussia Dortmund Ativo 133 / 133 40% 1 06.10.2027 -
Honest Ahanor Atalanta Ativo 130 / 140 40% 1 03.10.2027 -
Matias Siltanen Malmo FF Ativo 122 / 130 40% 5 01.10.2027 -
Warren Zaïre-Emery Paris Saint-Germain Ativo 156 / 167 40% 9 30.09.2027 -
Dayann Methalie Everton Ativo 132 / 142 40% 1 30.09.2027 -
Ayyoub Bouaddi Blackpool Ativo 141 / 152 40% 6 28.09.2027 -
Juan Manuel Villalba Boca Juniors Ativo 118 / 129 40% 3 28.09.2027 -
Agustín Medina Lanús Ativo 121 / 125 40% 3 28.09.2027 -
Archie Gray Leicester City Ativo 148 / 155 40% 3 27.09.2027 -
Kosta Nedeljković Aston Villa Ativo 133 / 139 40% 7 24.09.2027 -
Jonas Harder Basel Ativo 117 / 124 40% 3 24.09.2027 -
Andrej Bačanin Grasshopper Ativo 111 / 122 40% 2 22.09.2027 -
Corsin Konietzke St. Gallen Ativo 118 / 123 40% 5 16.09.2027 -
Kauã Moraes Cruzeiro Ativo 124 / 133 40% 1 14.09.2027 -
Taylan Bulut Basaksehir Ativo 121 / 129 40% 5 11.09.2027 -
Mbekezeli Mbokazi Chicago Fire Ativo 137 / 130 40% 4 11.09.2027 -
Juma Bah Manchester City Ativo 124 / 134 40% 2 10.09.2027 -
Dejan Radonjić Red Bull Salzburg Ativo 117 / 125 40% 1 30.08.2027 -
Khalid Abdulrahman Al Shabab Perdido 156 / 143 40% 1 30.08.2027 -
Brais Méndez Columbus Crew Ativo 154 / 148 40% 1 30.08.2027 -
Pedro Malheiro Al Wasl Ativo 137 / 143 40% 1 30.08.2027 -
Lucas Bergvall Tottenham Ativo 144 / 153 40% 2 27.08.2027 -
Luis Díaz Bayern Munich Ativo 163 / 164 40% 8 24.08.2027 -
Ousmane Dembélé Paris Saint-Germain Ativo 189 / 185 40% 1 24.08.2027 -
Ritsu Doan Gamba Osaka Perdido 150 / 148 40% 1 24.08.2027 -
Joey Veerman Borussia Dortmund Ativo 155 / 153 40% 1 22.08.2027 -
Benjamin Henrichs RB Leipzig Ativo 157 / 152 40% 1 22.08.2027 -
Joane Gadou Köln Ativo 132 / 137 40% 1 22.08.2027 -
Felix Nmecha Borussia Dortmund Ativo 171 / 165 40% 4 20.08.2027 -
Luiz Henrique VfB Stuttgart Ativo 149 / 148 40% 3 20.08.2027 -
Luís Henrique Inter Ativo 146 / 145 40% 1 20.08.2027 -
Alphonso Davies Bayern Munich Ativo 161 / 168 40% 4 19.08.2027 -
Manu Koné AS Roma Ativo 168 / 166 40% 1 19.08.2027 -
Maximilian Beier Borussia Dortmund Ativo 163 / 159 40% 1 19.08.2027 -
Tim Lemperle TSG Hoffenheim Ativo 146 / 149 40% 9 18.08.2027 -
Nicolò Barella Inter Ativo 172 / 168 40% 1 17.08.2027 -
Romano Schmid Frosinone Ativo 150 / 144 40% 1 17.08.2027 -
Arjan Malić Red Bull Salzburg Ativo 126 / 124 40% 1 17.08.2027 -
Takefusa Kubo Real Sociedad Ativo 162 / 157 40% 11 15.08.2027 -
Giannis Konstantelias Borussia Dortmund Ativo 152 / 147 40% 5 15.08.2027 -
Karim Adeyemi Barcelona Ativo 157 / 158 40% 9 15.08.2027 -
Ez Abde Betis Ativo 154 / 157 40% 11 14.08.2027 -
Oihan Sancet Eintracht Frankfurt Ativo 164 / 166 40% 6 14.08.2027 -
Khvicha Kvaratskhelia Inter Ativo 177 / 167 40% 2 14.08.2027 -
Noël Aséko Eintracht Frankfurt Rejeitado 132 / 137 72% 2 14.08.2027 Rejeitar
Keita Kosugi Eintracht Frankfurt Ativo 120 / 132 40% 1 14.08.2027 -
Davide Bartesaghi AC Milan Ativo 135 / 141 40% 1 14.08.2027 -
Álex Baena Atlético Madrid Ativo 169 / 165 40% 13 11.08.2027 -
Tuerto Sevilla Ativo 160 / 154 40% 2 10.08.2027 -
Mason Mount Manchester United Ativo 154 / 157 40% 2 09.08.2027 -
Enzo Cardozo Virtus Entella Ativo 111 / 119 40% 2 08.08.2027 -
Jofre Torrents Ajax Ativo 122 / 135 40% 4 08.08.2027 -
Jobe Bellingham Borussia Dortmund Ativo 138 / 150 40% 6 07.08.2027 -
Illaijh de Ruijter ADO Den Haag Ativo 119 / 125 40% 5 07.08.2027 -
Tiago Freitas Benfica Ativo 120 / 122 40% 2 06.08.2027 -
Ollie Scarles Chelsea Ativo 129 / 137 40% 6 04.08.2027 -
Anton Stach Leeds United Ativo 158 / 151 40% 4 03.08.2027 -
Leon Goretzka Aston Villa Perdido 152 / 157 40% 8 03.08.2027 -
Maeson King Blackpool Ativo 109 / 119 40% 3 03.08.2027 -
Kang-In Lee Atlético Madrid Ativo 168 / 159 40% 1 03.08.2027 -
Leonardo Mendicino Bari Ativo 119 / 124 40% 1 03.08.2027 -
Caleb Yirenkyi Coventry City Ativo 135 / 147 40% 4 01.08.2027 -
Lucas Jetten Cambuur Ativo 120 / 121 40% 3 01.08.2027 -
Givairo Read Feyenoord Ativo 149 / 150 40% 7 28.07.2027 -
Jonathan De Irastorza Levante Ativo 129 / 129 40% 1 27.07.2027 -
Kees Smit AZ Ativo 145 / 149 40% 3 26.07.2027 -
Izan Merino Málaga Ativo 126 / 131 40% 4 26.07.2027 -
Ismaël Baouf Cambuur Ativo 124 / 126 40% 4 25.07.2027 -
Sascha Britschgi Catanzaro Ativo 124 / 126 40% 3 25.07.2027 -
Julian Brandt Ajax Perdido 157 / 151 40% 1 21.07.2027 -
Christos Mouzakitis Hull City Ativo 136 / 140 40% 5 19.07.2027 -
Louis Leroux FC Nantes Ativo 131 / 132 40% 4 19.07.2027 -
Hugo Ekitiké Liverpool Ativo 173 / 164 40% 12 13.07.2027 -
John McGinn Aston Villa Perdido 158 / 149 40% 1 13.07.2027 -
Kevin Schade Brentford Ativo 154 / 154 40% 21 12.07.2027 -
Elijah Dijkstra AZ Ativo 130 / 133 40% 8 10.07.2027 -
Thomas Alderweireld Dijon Ativo 137 / 138 40% 2 09.07.2027 -
Samuele di Benedetto Zurich Ativo 120 / 121 40% 3 08.07.2027 -
John McGinn Aston Villa Perdido 147 / 151 40% 1 29.06.2027 -
Solly March Brighton Ativo 151 / 152 40% 2 28.06.2027 -
Julian Brandt Ajax Perdido 153 / 148 40% 13 22.06.2027 -
Noah Nartey Olympique Lyonnais Ativo 137 / 142 40% 1 22.06.2027 -
Đorđe Petrović Bournemouth Ativo 148 / 150 40% 1 04.06.2027 -
Leo Román Deportivo La Coruña Perdido 152 / 148 40% 1 04.06.2027 -
Kostantis Tzolakis Hull City Ativo 145 / 144 40% 1 04.06.2027 Mais informações
Max Rosenfelder SC Freiburg Ativo 142 / 132 72% 1 02.06.2027 Aprovar
Woo-Yeong Jeong Union Berlin Perdido 128 / 138 72% 1 01.06.2027 -
Kevin Fulham Ativo 152 / 150 40% 1 31.05.2027 -
Igor Jesus Nottingham Forest Ativo 150 / 144 40% 13 29.05.2027 -
Thulani Billiat Utrecht Ativo 144 / 136 40% 10 29.05.2027 -
Jorge Pascual Granada Ativo 131 / 136 40% 5 29.05.2027 -
Fábio Silva Borussia Dortmund Ativo 149 / 143 40% 15 28.05.2027 -
Georges Mikautadze FC Augsburg Ativo 151 / 155 40% 21 27.05.2027 -
Kenan Yıldız Juventus Ativo 164 / 166 40% 3 27.05.2027 -
Kai Havertz Arsenal Ativo 166 / 160 40% 21 26.05.2027 -
Tani Oluwaseyi Villarreal Ativo 147 / 143 40% 8 26.05.2027 -
Maximilian Beier Borussia Dortmund Perdido 156 / 156 40% 14 25.05.2027 -
Pau Víctor Estrela da Amadora Ativo 143 / 141 40% 12 25.05.2027 -
Benjamin Šeško Manchester United Ativo 151 / 156 40% 6 22.05.2027 -
Ferran Torres Paris Saint-Germain Ativo 166 / 165 40% 9 21.05.2027 -
Rafael Leão Galatasaray Ativo 161 / 162 40% 9 20.05.2027 -
Christantus Uche Getafe Ativo 136 / 135 40% 2 19.05.2027 -
Roberto Fernández Braga Ativo 145 / 140 40% 7 19.05.2027 -
Dávid Strelec Middlesbrough Ativo 145 / 138 40% 1 19.05.2027 -
Yusi Alavés Ativo 126 / 131 40% 1 19.05.2027 -
Liam Delap Nottingham Forest Ativo 150 / 144 40% 5 16.05.2027 -
Isaac Romero Sevilla Ativo 144 / 140 40% 4 13.05.2027 -
Andrés Martín Racing Santander Ativo 140 / 135 40% 6 12.05.2027 -
Matheus Cunha Manchester United Ativo 155 / 156 40% 4 11.05.2027 -
Brennan Johnson Everton Ativo 151 / 147 40% 9 10.05.2027 -
Hugo Duro Valencia Ativo 141 / 142 40% 3 10.05.2027 -
Mathys Tel Stade Rennais Ativo 149 / 144 40% 6 02.05.2027 -
João Simões Sporting CP Ativo 130 / 137 40% 1 23.04.2027 -
Alpha Touré FC Metz Ativo 117 / 121 40% 1 14.04.2027 -
Cody Gakpo Liverpool Ativo 164 / 157 40% 7 06.04.2027 -
Iliman N'Diaye Everton Ativo 158 / 155 40% 9 31.03.2027 -
Antoine Semenyo Manchester City Ativo 167 / 159 40% 4 31.03.2027 -
Gabriel Martinelli Arsenal Ativo 159 / 161 40% 4 27.03.2027 -
Bradley Barcola Liverpool Ativo 159 / 164 40% 14 25.03.2027 -
Dango Ouattara Brentford Ativo 149 / 142 40% 5 21.03.2027 -
Rayan Cherki Manchester City Ativo 170 / 162 40% 14 20.03.2027 -
Rodrygo Real Madrid Ativo 170 / 165 40% 13 13.03.2027 -
Yussif Saidu Zaragoza Ativo 128 / 126 40% 2 08.03.2027 -
Joaquin Seys Club Brugge Ativo 131 / 128 40% 1 07.03.2027 -
Nicolas Jackson Aston Villa Ativo 144 / 148 40% 2 28.02.2027 -
Benedict Hollerbach Mainz 05 Ativo 129 / 141 40% 4 24.02.2027 -
Rodrigo Muniz Fulham Ativo 142 / 140 40% 2 22.02.2027 -
Tim Drexler Red Bull Salzburg Ativo 121 / 129 40% 2 21.02.2027 -
Mohammed Kudus Tottenham Ativo 158 / 159 40% 3 20.02.2027 -
Georginio Rutter Manchester City Ativo 152 / 145 40% 3 16.02.2027 -
Didier Robert FC Augsburg Ativo 155 / 154 40% 11 09.02.2027 -
Rômulo RB Leipzig Ativo 150 / 144 40% 1 08.02.2027 -
Julián Álvarez Atlético Madrid Ativo 178 / 170 40% 9 07.02.2027 -
George Hirst Stoke City Ativo 130 / 135 40% 1 07.02.2027 -
Thijmen Blokzijl Groningen Ativo 125 / 127 40% 1 07.02.2027 -
Josha Vagnoman VfB Stuttgart Ativo 133 / 135 72% 1 11.01.2027 Aprovar
Fabian Rieder FC Augsburg Ativo 128 / 136 72% 1 03.01.2027 Aprovar
Adnan Carrasco FC Nantes Negociando 151 / 156 64% 1 01.01.2027 Aprovar
Brahim Díaz Real Madrid Ativo 148 / 146 40% 4 31.12.2026 -
Ismaïla Sarr Crystal Palace Ativo 152 / 148 40% 1 31.12.2026 -
Christoph Baumgartner RB Leipzig Ativo 153 / 150 40% 4 26.12.2026 -
Raphinha Barcelona Ativo 178 / 178 40% 7 24.12.2026 -
Yeremay Deportivo La Coruña Ativo 149 / 146 40% 3 22.12.2026 -
Reiss Nelson VfL Wolfsburg Ativo 153 / 145 40% 2 21.12.2026 -
Tyler Adams Bournemouth Ativo 158 / 151 40% 1 17.12.2026 -
Maxence Lacroix Chelsea Ativo 154 / 146 40% 1 17.12.2026 -
Nico Schlotterbeck Borussia Dortmund Ativo 169 / 163 40% 1 17.12.2026 -
Achraf Hakimi Paris Saint-Germain Ativo 181 / 178 40% 1 15.12.2026 -
Pedri Barcelona Ativo 178 / 176 40% 5 12.12.2026 -
Gabri Veiga FC Augsburg Ativo 142 / 145 40% 6 12.12.2026 -
Osame Sahraoui LOSC Lille Ativo 139 / 138 40% 2 09.12.2026 -
Karim Konaté Red Bull Salzburg Ativo 132 / 141 40% 2 01.12.2026 -
Bryan Mbeumo Manchester United Ativo 157 / 152 40% 4 27.11.2026 -
Eduardo Camavinga Real Madrid Ativo 167 / 164 40% 4 22.11.2026 -
Angelo Stiller VfB Stuttgart Ativo 149 / 148 40% 1 21.11.2026 -
Joshua Kimmich Bayern Munich Ativo 170 / 173 40% 2 19.11.2026 -
Anthony Gordon Barcelona Ativo 169 / 161 40% 1 10.11.2026 -
Frenkie de Jong Barcelona Ativo 160 / 168 40% 3 04.11.2026 -
Victor Osimhen RB Leipzig Ativo 162 / 155 40% 6 02.11.2026 -
Rodolfo Arteaga Liverpool Ativo 159 / 159 40% 5 02.11.2026 -
Randal Kolo Muani Juventus Ativo 152 / 149 40% 1 02.11.2026 -
Ángel Correa River Plate Ativo 138 / 140 40% 1 29.10.2026 -
Michael Olise Bayern Munich Ativo 176 / 178 40% 4 22.10.2026 -
James Maddison Tottenham Ativo 157 / 150 40% 1 19.10.2026 -
Boubacar Kamara Aston Villa Ativo 167 / 159 40% 1 18.10.2026 -
David Raum RB Leipzig Ativo 158 / 152 40% 1 15.10.2026 -
Vinícius Júnior Real Madrid Ativo 176 / 170 40% 5 14.10.2026 -
Xavi Simons Tottenham Ativo 152 / 156 40% 1 12.10.2026 -
Julian Palacios Feyenoord Ativo 145 / 150 40% 1 10.10.2026 -
Jules Koundé Barcelona Ativo 166 / 155 40% 1 10.10.2026 -
Aleksandar Pavlović Bayern Munich Ativo 158 / 158 40% 1 01.10.2026 -
Jérémy Doku Manchester City Ativo 163 / 164 40% 3 24.09.2026 -
Yuri Alberto Corinthians Ativo 153 / 133 40% 1 24.09.2026 -
Morgan Rogers Chelsea Ativo 152 / 157 40% 1 18.09.2026 -
Taty Castellanos West Ham United Ativo 145 / 144 40% 1 16.09.2026 -
Joško Gvardiol Manchester City Ativo 155 / 161 40% 1 15.09.2026 -
Fisnik Asllani TSG Hoffenheim Ativo 134 / 139 40% 3 12.09.2026 -
Enzo Fernández Manchester City Ativo 168 / 169 40% 2 11.09.2026 -
Carlos Álvarez Club America Ativo 145 / 141 40% 1 09.09.2026 -
Jonathan Dubasin Osasuna Ativo 140 / 141 40% 1 07.09.2026 -
Gonzalo Fulham Ativo 134 / 141 40% 1 06.09.2026 -
Gavin Bazunu Southampton Ativo 114 / 123 40% 1 03.08.2026 -
Jude Bellingham Real Madrid Ativo 170 / 174 40% 1 01.08.2026 -